Time;durP1;ratioP1;P1;durP2;ratioP2;P2;SDS_P1;SDS_P2;PMS_P1;PMS_P2;Temp;Humidity;BMP_temperature;BMP_pressure;BME280_temperature;BME280_humidity;BME280_pressure;Samples;Min_cycle;Max_cycle;Signal;HPM_P1;HPM_P2
2023/08/13 00:03:54;;;;;;;17.77;15.93;;;15.80;99.90;;;;;;25587543;23;20387;-49
2023/08/13 00:13:56;;;;;;;12.93;11.65;;;16.30;99.90;;;;;;25587710;23;20185;-49
2023/08/13 00:23:58;;;;;;;13.55;11.40;;;17.20;99.90;;;;;;25560498;23;20008;-50
2023/08/13 00:34:00;;;;;;;14.52;13.05;;;17.30;99.90;;;;;;25587301;23;20459;-50
2023/08/13 00:44:02;;;;;;;19.27;16.60;;;16.80;99.90;;;;;;25588611;23;20017;-54
2023/08/13 00:54:05;;;;;;;21.55;17.55;;;16.10;99.90;;;;;;25592585;23;20005;-50
2023/08/13 01:04:07;;;;;;;21.20;19.00;;;15.90;99.90;;;;;;25594362;23;20009;-50
2023/08/13 01:14:18;;;;;;;23.42;21.00;;;15.70;99.90;;;;;;25594148;23;20005;-46
2023/08/13 01:24:20;;;;;;;31.60;26.25;;;15.50;99.90;;;;;;25610227;23;20005;-52
2023/08/13 01:34:23;;;;;;;30.33;27.08;;;15.50;99.90;;;;;;25591569;23;20432;-51
2023/08/13 01:44:25;;;;;;;26.58;23.88;;;15.30;99.90;;;;;;25593342;23;20024;-52
2023/08/13 01:54:27;;;;;;;23.52;21.10;;;15.40;99.90;;;;;;25593037;23;20009;-48
2023/08/13 02:04:32;;;;;;;24.63;22.02;;;15.20;99.90;;;;;;25567401;23;20009;-50
2023/08/13 02:14:34;;;;;;;23.77;21.27;;;15.20;99.90;;;;;;25565925;23;20005;-51
2023/08/13 02:24:36;;;;;;;25.10;22.38;;;15.00;99.90;;;;;;25564790;23;20159;-50
2023/08/13 02:34:45;;;;;;;30.20;26.08;;;15.00;99.90;;;;;;25564360;23;20384;-48
2023/08/13 02:44:47;;;;;;;25.40;22.70;;;14.90;99.90;;;;;;25563418;23;20397;-51
2023/08/13 02:54:49;;;;;;;28.63;24.75;;;14.90;99.90;;;;;;25589178;23;20009;-50
2023/08/13 03:04:52;;;;;;;34.03;28.45;;;14.80;99.90;;;;;;25591149;23;20012;-51
2023/08/13 03:14:54;;;;;;;33.22;29.15;;;14.90;99.90;;;;;;25562236;23;20337;-49
2023/08/13 03:24:55;;;;;;;21.55;18.15;;;15.00;99.90;;;;;;25562181;23;20593;-50
2023/08/13 03:34:58;;;;;;;13.90;12.60;;;15.20;99.90;;;;;;25561772;23;20009;-51
2023/08/13 03:45:00;;;;;;;11.35;10.35;;;15.50;99.90;;;;;;25537424;23;20550;-47
2023/08/13 03:55:03;;;;;;;11.82;10.02;;;15.80;99.90;;;;;;25561152;23;20001;-46
2023/08/13 04:05:06;;;;;;;10.27;9.27;;;16.00;99.90;;;;;;25561134;23;20027;-47
2023/08/13 04:15:08;;;;;;;9.32;8.43;;;16.20;99.90;;;;;;25586961;23;20005;-47
2023/08/13 04:25:12;;;;;;;9.15;8.25;;;16.40;99.90;;;;;;25586025;23;20336;-47
2023/08/13 04:35:14;;;;;;;9.30;8.50;;;16.70;99.90;;;;;;25585692;23;20009;-47
2023/08/13 04:45:18;;;;;;;9.85;7.80;;;16.80;99.90;;;;;;25586982;23;20388;-48
2023/08/13 04:55:20;;;;;;;8.50;7.50;;;16.90;99.90;;;;;;25558254;23;20005;-48
2023/08/13 05:05:22;;;;;;;10.02;7.28;;;16.90;99.90;;;;;;25559891;23;20005;-53
2023/08/13 05:15:24;;;;;;;8.50;7.70;;;16.80;99.90;;;;;;25559126;23;20001;-48
2023/08/13 05:25:26;;;;;;;10.60;8.30;;;16.90;99.90;;;;;;25585022;23;20009;-49
2023/08/13 05:35:29;;;;;;;8.43;7.57;;;16.90;99.90;;;;;;25585761;23;20009;-48
2023/08/13 05:45:32;;;;;;;8.20;7.25;;;17.10;99.90;;;;;;25565717;23;20440;-54
2023/08/13 05:55:34;;;;;;;8.57;7.70;;;17.20;99.90;;;;;;25565316;23;20008;-49
2023/08/13 06:05:38;;;;;;;8.90;8.00;;;17.40;99.90;;;;;;25591438;23;20361;-49
2023/08/13 06:15:40;;;;;;;8.32;7.50;;;17.40;99.90;;;;;;25591181;23;20059;-50
2023/08/13 06:25:42;;;;;;;8.07;6.78;;;17.40;99.90;;;;;;25591115;23;20051;-50
2023/08/13 06:35:46;;;;;;;8.48;4.78;;;17.50;99.90;;;;;;25591147;23;20067;-52
2023/08/13 06:45:48;;;;;;;12.88;4.70;;;19.40;99.90;;;;;;25589956;23;20005;-56
2023/08/13 06:55:50;;;;;;;3.45;3.17;;;22.50;99.90;;;;;;25586220;23;20518;-48
2023/08/13 07:05:52;;;;;;;6.32;4.47;;;24.50;99.90;;;;;;25592004;23;20005;-58
2023/08/13 07:15:54;;;;;;;4.30;3.90;;;25.40;99.90;;;;;;25589405;23;20009;-58
2023/08/13 07:25:56;;;;;;;4.38;3.97;;;25.50;99.90;;;;;;25589099;23;20005;-59
2023/08/13 07:36:03;;;;;;;8.07;4.95;;;26.10;99.90;;;;;;25585962;23;20105;-57
2023/08/13 07:46:05;;;;;;;6.22;5.00;;;26.80;99.90;;;;;;25626885;23;20032;-49
2023/08/13 07:56:07;;;;;;;4.50;4.13;;;27.20;99.90;;;;;;25584898;23;20067;-59
2023/08/13 08:06:12;;;;;;;5.43;4.65;;;27.50;99.90;;;;;;25586439;23;20009;-59
2023/08/13 08:16:14;;;;;;;5.40;4.90;;;27.60;99.90;;;;;;25585782;23;20075;-47
2023/08/13 08:26:16;;;;;;;4.93;4.43;;;27.60;99.90;;;;;;25585176;23;20009;-58
2023/08/13 08:36:18;;;;;;;5.95;4.85;;;27.60;99.90;;;;;;25585286;23;20060;-59
2023/08/13 08:46:20;;;;;;;5.07;4.43;;;28.00;99.90;;;;;;25585435;23;20012;-59
2023/08/13 08:56:24;;;;;;;6.25;5.75;;;28.00;99.90;;;;;;25584544;23;20005;-58
2023/08/13 09:06:53;;;;;;;6.88;5.18;;;28.20;99.90;;;;;;25585670;23;20449;-58
2023/08/13 09:16:58;;;;;;;5.50;5.00;;;27.90;99.90;;;;;;25069956;23;20359;-59
2023/08/13 09:27:01;;;;;;;4.63;4.22;;;27.20;99.90;;;;;;25094668;23;20358;-58
2023/08/13 09:37:03;;;;;;;5.00;4.50;;;27.90;99.90;;;;;;25095172;23;20019;-58
2023/08/13 09:47:08;;;;;;;6.10;5.43;;;28.30;99.90;;;;;;25192677;23;20147;-58
2023/08/13 09:57:16;;;;;;;8.90;5.20;;;28.10;99.30;;;;;;25589307;23;20067;-58
2023/08/13 10:07:19;;;;;;;5.75;5.22;;;28.10;99.90;;;;;;25632376;23;20008;-58
2023/08/13 10:17:26;;;;;;;5.40;4.93;;;28.10;99.90;;;;;;25590694;23;20009;-58
2023/08/13 10:27:33;;;;;;;5.60;5.10;;;28.40;99.90;;;;;;25631668;23;20012;-47
2023/08/13 10:37:36;;;;;;;6.70;6.03;;;28.50;99.90;;;;;;25619478;23;20013;-58
2023/08/13 10:47:53;;;;;;;6.75;6.25;;;28.80;99.90;;;;;;25589937;23;20002;-51
2023/08/13 10:57:55;;;;;;;6.47;5.97;;;28.40;99.90;;;;;;25630695;23;20015;-57
2023/08/13 11:07:57;;;;;;;7.38;6.68;;;28.10;99.90;;;;;;25592546;23;20067;-54
2023/08/13 11:17:59;;;;;;;8.18;7.47;;;27.60;99.90;;;;;;25590323;23;20009;-58
2023/08/13 11:28:01;;;;;;;7.60;7.00;;;28.20;99.90;;;;;;25588552;23;20009;-58
2023/08/13 11:38:03;;;;;;;8.60;7.55;;;28.90;99.90;;;;;;25587865;23;20013;-58
2023/08/13 11:48:14;;;;;;;7.22;6.53;;;28.90;99.90;;;;;;25586999;23;20016;-47
2023/08/13 11:58:18;;;;;;;7.68;6.97;;;29.30;99.90;;;;;;25628002;23;20009;-59
2023/08/13 12:08:25;;;;;;;8.18;6.65;;;29.40;99.90;;;;;;25586434;23;20510;-56
2023/08/13 12:18:30;;;;;;;8.25;7.55;;;27.80;99.90;;;;;;25627757;23;20009;-57
2023/08/13 12:28:32;;;;;;;7.78;7.07;;;27.40;99.90;;;;;;25586132;23;20310;-57
2023/08/13 12:38:36;;;;;;;8.25;6.95;;;27.30;99.90;;;;;;25587471;23;20013;-58
2023/08/13 12:48:40;;;;;;;7.85;7.15;;;27.70;99.90;;;;;;25584738;23;20009;-58
2023/08/13 12:58:44;;;;;;;7.78;7.18;;;28.30;99.90;;;;;;25559301;23;20009;-59
2023/08/13 13:08:46;;;;;;;7.95;7.25;;;28.80;99.90;;;;;;25584406;23;20009;-58
2023/08/13 13:18:49;;;;;;;7.57;6.60;;;28.30;99.90;;;;;;25584808;23;20005;-58
2023/08/13 13:28:51;;;;;;;7.15;5.88;;;28.50;99.90;;;;;;25558556;23;20478;-58
2023/08/13 13:38:53;;;;;;;6.32;5.13;;;28.30;99.90;;;;;;25585405;23;20013;-60
2023/08/13 13:48:55;;;;;;;6.40;5.75;;;29.20;99.90;;;;;;25584653;23;20032;-60
2023/08/13 13:58:57;;;;;;;6.28;5.68;;;29.50;98.30;;;;;;25587641;23;20067;-60
2023/08/13 14:08:59;;;;;;;6.22;5.20;;;29.60;99.90;;;;;;25591484;23;20075;-60
2023/08/13 14:19:01;;;;;;;6.45;5.88;;;29.90;99.50;;;;;;25590424;23;20008;-60
2023/08/13 14:29:03;;;;;;;6.53;6.03;;;30.00;98.90;;;;;;25590626;23;20005;-60
2023/08/13 14:39:05;;;;;;;6.47;5.90;;;29.80;98.60;;;;;;25588448;23;20009;-60
2023/08/13 14:49:07;;;;;;;6.18;5.68;;;29.50;98.60;;;;;;25589658;23;20341;-60
2023/08/13 14:59:10;;;;;;;6.30;5.70;;;29.50;97.20;;;;;;25587730;23;20487;-60
2023/08/13 15:09:12;;;;;;;6.57;5.97;;;29.50;97.80;;;;;;25591513;23;20016;-60
2023/08/13 15:19:14;;;;;;;6.10;4.95;;;29.10;97.90;;;;;;25587858;23;20009;-57
2023/08/13 15:29:15;;;;;;;5.70;5.30;;;29.30;98.30;;;;;;25587208;23;20479;-57
2023/08/13 15:39:19;;;;;;;5.47;4.78;;;;;;;;;;25587195;23;20013;-57
2023/08/13 15:49:21;;;;;;;4.97;4.40;;;29.30;95.00;;;;;;25586951;23;20013;-58
2023/08/13 15:59:23;;;;;;;5.22;4.60;;;29.80;94.30;;;;;;25587461;23;20087;-58
2023/08/13 16:09:25;;;;;;;2.72;2.50;;;29.40;94.50;;;;;;25586755;23;20349;-59
2023/08/13 16:19:27;;;;;;;2.50;2.30;;;28.70;90.50;;;;;;25585274;23;20032;-55
2023/08/13 16:29:29;;;;;;;4.75;2.45;;;26.50;90.50;;;;;;25586058;23;20005;-50
2023/08/13 16:39:30;;;;;;;7.50;4.50;;;23.00;94.60;;;;;;25585716;23;20020;-52
2023/08/13 16:49:32;;;;;;;5.38;4.00;;;21.00;97.30;;;;;;25585917;23;20005;-51
2023/08/13 16:59:34;;;;;;;3.25;1.80;;;20.00;99.30;;;;;;25584715;23;20013;-52
2023/08/13 17:09:39;;;;;;;3.63;2.50;;;19.40;96.60;;;;;;25585577;23;20005;-54
2023/08/13 17:19:41;;;;;;;4.78;3.38;;;19.10;98.60;;;;;;25558927;23;20071;-51
2023/08/13 17:29:43;;;;;;;6.45;4.75;;;18.50;99.90;;;;;;25585743;23;20013;-53
2023/08/13 17:39:44;;;;;;;8.23;5.25;;;17.90;99.90;;;;;;25593326;23;20448;-53
2023/08/13 17:49:46;;;;;;;2.15;1.42;;;17.50;99.90;;;;;;25592987;23;20009;-49
2023/08/13 17:59:48;;;;;;;3.35;1.58;;;17.40;97.90;;;;;;25592667;23;20013;-49
2023/08/13 18:10:02;;;;;;;6.93;3.80;;;17.10;97.90;;;;;;25633391;23;20005;-54
2023/08/13 18:20:08;;;;;;;11.57;7.32;;;16.80;96.60;;;;;;25591078;23;20005;-50
2023/08/13 18:30:10;;;;;;;8.02;4.97;;;16.50;95.00;;;;;;25631197;23;20005;-52
2023/08/13 18:40:12;;;;;;;4.85;1.30;;;16.30;94.60;;;;;;25588505;23;20310;-55
2023/08/13 18:50:14;;;;;;;4.53;2.25;;;16.20;95.10;;;;;;25587839;23;20412;-53
2023/08/13 19:00:17;;;;;;;2.95;2.00;;;15.90;95.40;;;;;;25586140;23;20009;-49
2023/08/13 19:10:19;;;;;;;5.47;2.25;;;15.70;94.20;;;;;;25586410;23;20009;-53
2023/08/13 19:20:22;;;;;;;4.20;2.25;;;15.60;94.80;;;;;;25584918;23;20020;-54
2023/08/13 19:30:23;;;;;;;5.25;1.75;;;15.50;93.40;;;;;;25585994;23;20093;-49
2023/08/13 19:40:25;;;;;;;4.30;2.15;;;15.40;94.20;;;;;;25585726;23;20013;-53
2023/08/13 19:50:27;;;;;;;4.18;1.48;;;15.10;94.30;;;;;;25585468;23;20005;-54
2023/08/13 20:00:29;;;;;;;3.20;1.40;;;15.10;94.50;;;;;;25584334;23;20016;-52
2023/08/13 20:10:31;;;;;;;3.90;1.30;;;15.00;95.00;;;;;;25583724;23;20013;-52
2023/08/13 20:20:33;;;;;;;3.83;1.30;;;15.00;93.80;;;;;;25582078;23;20388;-52
2023/08/13 20:30:36;;;;;;;2.67;1.30;;;14.80;94.70;;;;;;25579803;23;20389;-50
2023/08/13 20:40:37;;;;;;;3.45;1.23;;;14.80;94.80;;;;;;25581728;23;20009;-52
2023/08/13 20:50:40;;;;;;;3.63;1.50;;;14.70;94.80;;;;;;25581159;23;20277;-49
2023/08/13 21:00:42;;;;;;;3.20;1.75;;;14.80;94.00;;;;;;25580573;23;20067;-51
2023/08/13 21:10:46;;;;;;;4.80;1.50;;;14.80;94.00;;;;;;25562808;23;20009;-54
2023/08/13 21:20:49;;;;;;;4.72;1.30;;;14.70;94.90;;;;;;25588353;23;20429;-53
2023/08/13 21:30:51;;;;;;;5.93;1.50;;;14.60;94.50;;;;;;25588697;23;20373;-49
2023/08/13 21:40:53;;;;;;;5.85;1.67;;;14.40;94.60;;;;;;25590614;23;20017;-48
2023/08/13 21:50:57;;;;;;;2.10;1.13;;;14.30;94.90;;;;;;25591010;23;20104;-50
2023/08/13 22:00:59;;;;;;;3.72;1.40;;;14.30;94.90;;;;;;25590826;23;20005;-50
2023/08/13 22:11:00;;;;;;;5.07;1.40;;;14.10;95.10;;;;;;25590610;23;20381;-45
2023/08/13 22:21:03;;;;;;;5.13;1.52;;;14.20;95.30;;;;;;25588902;23;20008;-51
2023/08/13 22:31:05;;;;;;;5.70;1.20;;;14.10;94.20;;;;;;25589043;23;20016;-51
2023/08/13 22:41:07;;;;;;;4.20;1.52;;;14.30;94.20;;;;;;25589590;23;20328;-48
2023/08/13 22:51:09;;;;;;;4.78;1.38;;;14.20;94.60;;;;;;25588234;23;20028;-49
2023/08/13 23:01:11;;;;;;;2.90;1.25;;;14.10;93.50;;;;;;25587648;23;20004;-46
2023/08/13 23:11:13;;;;;;;3.28;1.30;;;14.20;93.90;;;;;;25589261;23;20032;-49
2023/08/13 23:21:14;;;;;;;1.95;1.00;;;14.10;94.50;;;;;;25589265;23;20005;-50
2023/08/13 23:31:17;;;;;;;1.52;0.88;;;14.00;94.30;;;;;;25588639;23;20380;-50
2023/08/13 23:41:18;;;;;;;2.85;1.20;;;13.90;94.40;;;;;;25563220;23;20012;-47
2023/08/13 23:51:20;;;;;;;3.60;1.02;;;13.80;94.00;;;;;;25588601;23;20421;-48
